• Join FlightAware (Why Join?)
  • Login
  • US Flag 
03:21AM EST


 

Airport Tracker/Info


-or-


 

Live Flight TrackerFlight Track Log ✈ N813BB ✈ 19-Apr-2014 ✈ KAUS - 17XS

Flight Track Log - Related Links

Times and Time Zones

All times are in EDT time to prevent confusion due to time zone crossing. See the N813BB flight status page for this flight to view local times or setup timezone preferences in your user account.

Time Position Orientation Groundspeed Altitude Reporting Facility
EDT Latitude Longitude Course Direction KTS MPH feet Rate Location/Type
12:59AM 30.1806 -97.7528 327° Northwest 253 291 8,200  Level Houston Center
01:00AM 30.2525 -97.7786 343° North 266 306 10,700 1,860 Climbing Houston Center
01:01AM 30.3264 -97.8072 342° North 274 315 12,000 600 Climbing Houston Center
01:02AM 30.5208 -97.6364 327° Northwest  Level FlightAware Approximate
01:02AM 30.4106 -97.8411 341° North 310 357 12,000  Level Houston Center
01:03AM 30.5783 -97.6795 327° Northwest  Level FlightAware Approximate
01:03AM 30.4972 -97.8736 342° North 321 369 12,000  Level Houston Center
01:04AM 30.5847 -97.9078 341° North 326 375 12,000  Level Houston Center
01:05AM 30.6722 -97.9417 342° North 328 377 12,000  Level Houston Center
01:06AM 30.7606 -97.9764 341° North 328 377 12,000  Level Houston Center
01:07AM 30.8492 -98.0100 342° North 328 377 12,000  Level Houston Center
01:08AM 30.9378 -98.0447 341° North 330 380 12,000  Level Houston Center
01:09AM 31.0269 -98.0794 342° North 331 381 12,000  Level Houston Center
01:10AM 31.1158 -98.1144 341° North 332 382 12,000  Level Houston Center
01:11AM 31.2050 -98.1489 342° North 333 383 12,000  Level Houston Center
01:12AM 31.2967 -98.1803 344° North 338 389 12,000  Level Houston Center
01:13AM 31.3869 -98.2092 345° North 338 389 12,000  Level Houston Center
01:14AM 31.4811 -98.2306 349° North 340 391 12,000  Level Houston Center
01:15AM 31.5714 -98.2547 347° North 339 390 12,000  Level Houston Center
01:16AM 31.6633 -98.2764 349° North 339 390 12,000 -60 Level Houston Center
01:17AM 31.7550 -98.3011 347° North 338 389 11,900 -300 Descending Houston Center
01:18AM 31.8486 -98.3236 348° North 338 389 11,500 -420 Descending Houston Center